sensor_id;sensor_type;location;lat;lon;timestamp;temperature;humidity
43665;DHT22;29263;48.172;11.484;2023-02-21T00:00:23;6.40;92.90
43665;DHT22;29263;48.172;11.484;2023-02-21T00:03:07;6.30;93.20
43665;DHT22;29263;48.172;11.484;2023-02-21T00:05:51;6.20;93.20
43665;DHT22;29263;48.172;11.484;2023-02-21T00:08:35;6.20;92.80
43665;DHT22;29263;48.172;11.484;2023-02-21T00:11:19;6.20;93.90
43665;DHT22;29263;48.172;11.484;2023-02-21T00:14:04;6.20;92.70
43665;DHT22;29263;48.172;11.484;2023-02-21T00:16:47;6.10;93.70
43665;DHT22;29263;48.172;11.484;2023-02-21T00:19:31;6.10;94.20
43665;DHT22;29263;48.172;11.484;2023-02-21T00:22:15;6.10;94.90
43665;DHT22;29263;48.172;11.484;2023-02-21T00:25:00;6.10;94.80
43665;DHT22;29263;48.172;11.484;2023-02-21T00:27:44;6.00;95.90
43665;DHT22;29263;48.172;11.484;2023-02-21T00:30:28;5.90;96.20
43665;DHT22;29263;48.172;11.484;2023-02-21T00:33:11;6.00;97.30
43665;DHT22;29263;48.172;11.484;2023-02-21T00:35:56;5.90;97.60
43665;DHT22;29263;48.172;11.484;2023-02-21T00:38:40;5.90;98.90
43665;DHT22;29263;48.172;11.484;2023-02-21T00:41:23;5.80;99.20
43665;DHT22;29263;48.172;11.484;2023-02-21T00:44:08;5.80;99.90
43665;DHT22;29263;48.172;11.484;2023-02-21T00:46:52;5.70;99.90
43665;DHT22;29263;48.172;11.484;2023-02-21T00:49:36;5.70;99.90
43665;DHT22;29263;48.172;11.484;2023-02-21T00:52:20;5.60;99.90
43665;DHT22;29263;48.172;11.484;2023-02-21T00:55:04;5.60;99.90
43665;DHT22;29263;48.172;11.484;2023-02-21T00:57:48;5.60;99.90
43665;DHT22;29263;48.172;11.484;2023-02-21T01:00:32;5.50;99.90
43665;DHT22;29263;48.172;11.484;2023-02-21T01:03:16;5.40;99.90
43665;DHT22;29263;48.172;11.484;2023-02-21T01:06:00;5.40;99.90
43665;DHT22;29263;48.172;11.484;2023-02-21T01:08:45;5.30;99.90
43665;DHT22;29263;48.172;11.484;2023-02-21T01:11:30;5.30;99.90
43665;DHT22;29263;48.172;11.484;2023-02-21T01:14:15;5.20;99.90
43665;DHT22;29263;48.172;11.484;2023-02-21T01:16:59;5.20;99.90
43665;DHT22;29263;48.172;11.484;2023-02-21T01:19:44;5.10;99.90
43665;DHT22;29263;48.172;11.484;2023-02-21T01:22:28;5.10;99.90
43665;DHT22;29263;48.172;11.484;2023-02-21T01:25:12;5.00;99.90
43665;DHT22;29263;48.172;11.484;2023-02-21T01:27:56;4.90;99.90
43665;DHT22;29263;48.172;11.484;2023-02-21T01:30:40;4.90;99.90
43665;DHT22;29263;48.172;11.484;2023-02-21T01:33:24;4.80;99.90
43665;DHT22;29263;48.172;11.484;2023-02-21T01:36:09;4.80;99.90
43665;DHT22;29263;48.172;11.484;2023-02-21T01:38:53;4.70;99.90
43665;DHT22;29263;48.172;11.484;2023-02-21T01:41:37;4.70;99.90
43665;DHT22;29263;48.172;11.484;2023-02-21T01:44:38;4.70;99.90
43665;DHT22;29263;48.172;11.484;2023-02-21T01:47:23;4.60;99.90
43665;DHT22;29263;48.172;11.484;2023-02-21T01:50:27;4.60;99.90
43665;DHT22;29263;48.172;11.484;2023-02-21T01:53:18;4.50;99.90
43665;DHT22;29263;48.172;11.484;2023-02-21T01:56:03;4.50;99.90
43665;DHT22;29263;48.172;11.484;2023-02-21T01:58:50;4.40;99.90
43665;DHT22;29263;48.172;11.484;2023-02-21T02:02:00;4.30;99.90
43665;DHT22;29263;48.172;11.484;2023-02-21T02:04:46;4.30;99.90
43665;DHT22;29263;48.172;11.484;2023-02-21T02:07:31;4.30;99.90
43665;DHT22;29263;48.172;11.484;2023-02-21T02:10:16;4.30;99.90
43665;DHT22;29263;48.172;11.484;2023-02-21T02:19:14;4.30;99.90
43665;DHT22;29263;48.172;11.484;2023-02-21T02:41:22;4.10;99.90
43665;DHT22;29263;48.172;11.484;2023-02-21T02:43:37;4.10;99.90
43665;DHT22;29263;48.172;11.484;2023-02-21T02:46:23;4.00;99.90
43665;DHT22;29263;48.172;11.484;2023-02-21T02:49:15;4.00;99.90
43665;DHT22;29263;48.172;11.484;2023-02-21T02:51:43;4.00;99.90
43665;DHT22;29263;48.172;11.484;2023-02-21T02:54:08;4.00;99.90
43665;DHT22;29263;48.172;11.484;2023-02-21T02:56:34;4.00;99.90
43665;DHT22;29263;48.172;11.484;2023-02-21T02:59:08;4.00;99.90
43665;DHT22;29263;48.172;11.484;2023-02-21T03:01:45;4.00;99.90
43665;DHT22;29263;48.172;11.484;2023-02-21T03:15:14;3.90;99.90
43665;DHT22;29263;48.172;11.484;2023-02-21T03:17:43;3.90;99.90
43665;DHT22;29263;48.172;11.484;2023-02-21T03:20:12;3.80;99.90
43665;DHT22;29263;48.172;11.484;2023-02-21T03:22:39;3.80;99.90
43665;DHT22;29263;48.172;11.484;2023-02-21T03:25:07;3.80;99.90
43665;DHT22;29263;48.172;11.484;2023-02-21T03:27:34;3.70;99.90
43665;DHT22;29263;48.172;11.484;2023-02-21T03:30:03;3.60;99.90
43665;DHT22;29263;48.172;11.484;2023-02-21T03:32:34;3.60;99.90
43665;DHT22;29263;48.172;11.484;2023-02-21T03:35:02;3.60;99.90
43665;DHT22;29263;48.172;11.484;2023-02-21T03:37:34;3.60;99.90
43665;DHT22;29263;48.172;11.484;2023-02-21T03:40:02;3.50;99.90
43665;DHT22;29263;48.172;11.484;2023-02-21T03:42:28;3.50;99.90
43665;DHT22;29263;48.172;11.484;2023-02-21T03:44:56;3.50;99.90
43665;DHT22;29263;48.172;11.484;2023-02-21T03:47:22;3.40;99.90
43665;DHT22;29263;48.172;11.484;2023-02-21T03:49:47;3.40;99.90
43665;DHT22;29263;48.172;11.484;2023-02-21T03:52:13;3.40;99.90
43665;DHT22;29263;48.172;11.484;2023-02-21T03:54:39;3.40;99.90
43665;DHT22;29263;48.172;11.484;2023-02-21T03:57:05;3.30;99.90
43665;DHT22;29263;48.172;11.484;2023-02-21T03:59:31;3.30;99.90
43665;DHT22;29263;48.172;11.484;2023-02-21T04:01:56;3.30;99.90
43665;DHT22;29263;48.172;11.484;2023-02-21T04:04:22;3.30;99.90
43665;DHT22;29263;48.172;11.484;2023-02-21T04:06:48;3.30;99.90
43665;DHT22;29263;48.172;11.484;2023-02-21T04:09:13;3.30;99.90
43665;DHT22;29263;48.172;11.484;2023-02-21T04:11:43;3.30;99.90
43665;DHT22;29263;48.172;11.484;2023-02-21T04:14:09;3.20;99.90
43665;DHT22;29263;48.172;11.484;2023-02-21T04:16:35;3.20;99.90
43665;DHT22;29263;48.172;11.484;2023-02-21T04:19:00;3.20;99.90
43665;DHT22;29263;48.172;11.484;2023-02-21T04:21:26;3.20;99.90
43665;DHT22;29263;48.172;11.484;2023-02-21T04:23:52;3.10;99.90
43665;DHT22;29263;48.172;11.484;2023-02-21T04:26:17;3.20;99.90
43665;DHT22;29263;48.172;11.484;2023-02-21T04:28:43;3.10;99.90
43665;DHT22;29263;48.172;11.484;2023-02-21T04:31:09;2.90;99.90
43665;DHT22;29263;48.172;11.484;2023-02-21T04:33:35;3.00;99.90
43665;DHT22;29263;48.172;11.484;2023-02-21T04:36:01;2.90;99.90
43665;DHT22;29263;48.172;11.484;2023-02-21T04:38:26;2.90;99.90
43665;DHT22;29263;48.172;11.484;2023-02-21T04:40:52;3.00;99.90
43665;DHT22;29263;48.172;11.484;2023-02-21T04:43:18;2.90;99.90
43665;DHT22;29263;48.172;11.484;2023-02-21T04:45:45;3.00;99.90
43665;DHT22;29263;48.172;11.484;2023-02-21T04:48:11;3.00;99.90
43665;DHT22;29263;48.172;11.484;2023-02-21T04:50:36;3.00;99.90
43665;DHT22;29263;48.172;11.484;2023-02-21T04:53:02;3.00;99.90
43665;DHT22;29263;48.172;11.484;2023-02-21T04:55:27;3.00;99.90
43665;DHT22;29263;48.172;11.484;2023-02-21T04:57:53;3.00;99.90
43665;DHT22;29263;48.172;11.484;2023-02-21T05:00:18;2.90;99.90
43665;DHT22;29263;48.172;11.484;2023-02-21T05:02:48;2.90;99.90
43665;DHT22;29263;48.172;11.484;2023-02-21T05:05:13;2.90;99.90
43665;DHT22;29263;48.172;11.484;2023-02-21T05:07:42;2.90;99.90
43665;DHT22;29263;48.172;11.484;2023-02-21T05:10:09;2.90;99.90
43665;DHT22;29263;48.172;11.484;2023-02-21T05:12:36;2.90;99.90
43665;DHT22;29263;48.172;11.484;2023-02-21T05:15:04;2.90;99.90
43665;DHT22;29263;48.172;11.484;2023-02-21T05:17:30;2.80;99.90
43665;DHT22;29263;48.172;11.484;2023-02-21T05:19:56;2.80;99.90
43665;DHT22;29263;48.172;11.484;2023-02-21T05:22:21;2.80;99.90
43665;DHT22;29263;48.172;11.484;2023-02-21T05:24:47;2.80;99.90
43665;DHT22;29263;48.172;11.484;2023-02-21T05:27:15;2.90;99.90
43665;DHT22;29263;48.172;11.484;2023-02-21T05:29:45;2.90;99.90
43665;DHT22;29263;48.172;11.484;2023-02-21T05:32:10;2.90;99.90
43665;DHT22;29263;48.172;11.484;2023-02-21T05:34:36;2.90;99.90
43665;DHT22;29263;48.172;11.484;2023-02-21T05:37:01;2.90;99.90
43665;DHT22;29263;48.172;11.484;2023-02-21T05:39:27;3.00;99.90
43665;DHT22;29263;48.172;11.484;2023-02-21T05:41:53;2.90;99.90
43665;DHT22;29263;48.172;11.484;2023-02-21T05:44:18;3.00;99.90
43665;DHT22;29263;48.172;11.484;2023-02-21T05:46:44;3.00;99.90
43665;DHT22;29263;48.172;11.484;2023-02-21T05:49:10;3.00;99.90
43665;DHT22;29263;48.172;11.484;2023-02-21T05:51:42;3.00;99.90
43665;DHT22;29263;48.172;11.484;2023-02-21T05:54:12;3.00;99.90
43665;DHT22;29263;48.172;11.484;2023-02-21T05:56:40;2.90;99.90
43665;DHT22;29263;48.172;11.484;2023-02-21T05:59:07;3.00;99.90
43665;DHT22;29263;48.172;11.484;2023-02-21T06:01:34;3.00;99.90
43665;DHT22;29263;48.172;11.484;2023-02-21T06:04:00;3.00;99.90
43665;DHT22;29263;48.172;11.484;2023-02-21T06:06:26;3.00;99.90
43665;DHT22;29263;48.172;11.484;2023-02-21T06:08:51;3.10;99.90
43665;DHT22;29263;48.172;11.484;2023-02-21T06:11:26;3.10;99.90
43665;DHT22;29263;48.172;11.484;2023-02-21T06:13:57;3.10;99.90
43665;DHT22;29263;48.172;11.484;2023-02-21T06:16:23;3.20;99.90
43665;DHT22;29263;48.172;11.484;2023-02-21T06:18:54;3.20;99.90
43665;DHT22;29263;48.172;11.484;2023-02-21T06:21:20;3.20;99.90
43665;DHT22;29263;48.172;11.484;2023-02-21T06:23:46;3.20;99.90
43665;DHT22;29263;48.172;11.484;2023-02-21T06:26:13;3.10;99.90
43665;DHT22;29263;48.172;11.484;2023-02-21T06:28:38;3.20;99.90
43665;DHT22;29263;48.172;11.484;2023-02-21T06:31:04;3.10;99.90
43665;DHT22;29263;48.172;11.484;2023-02-21T06:33:31;3.10;99.90
43665;DHT22;29263;48.172;11.484;2023-02-21T06:35:57;3.10;99.90
43665;DHT22;29263;48.172;11.484;2023-02-21T06:38:25;3.10;99.90
43665;DHT22;29263;48.172;11.484;2023-02-21T06:40:51;3.10;99.90
43665;DHT22;29263;48.172;11.484;2023-02-21T06:43:16;3.20;99.90
43665;DHT22;29263;48.172;11.484;2023-02-21T06:45:42;3.20;99.90
43665;DHT22;29263;48.172;11.484;2023-02-21T06:48:14;3.20;99.90
43665;DHT22;29263;48.172;11.484;2023-02-21T06:50:40;3.20;99.90
43665;DHT22;29263;48.172;11.484;2023-02-21T06:53:06;3.30;99.90
43665;DHT22;29263;48.172;11.484;2023-02-21T06:55:31;3.30;99.90
43665;DHT22;29263;48.172;11.484;2023-02-21T06:57:57;3.30;99.90
43665;DHT22;29263;48.172;11.484;2023-02-21T07:00:22;3.40;99.90
43665;DHT22;29263;48.172;11.484;2023-02-21T07:02:51;3.40;99.90
43665;DHT22;29263;48.172;11.484;2023-02-21T07:05:17;3.50;99.90
43665;DHT22;29263;48.172;11.484;2023-02-21T07:07:42;3.50;99.90
43665;DHT22;29263;48.172;11.484;2023-02-21T07:10:08;3.60;99.90
43665;DHT22;29263;48.172;11.484;2023-02-21T07:12:34;3.70;99.90
43665;DHT22;29263;48.172;11.484;2023-02-21T07:15:00;3.70;99.90
43665;DHT22;29263;48.172;11.484;2023-02-21T07:17:25;3.80;99.90
43665;DHT22;29263;48.172;11.484;2023-02-21T07:19:51;4.00;99.90
43665;DHT22;29263;48.172;11.484;2023-02-21T07:22:17;4.10;99.90
43665;DHT22;29263;48.172;11.484;2023-02-21T07:24:44;4.20;99.90
43665;DHT22;29263;48.172;11.484;2023-02-21T07:27:09;4.40;99.90
43665;DHT22;29263;48.172;11.484;2023-02-21T07:29:35;4.60;99.90
43665;DHT22;29263;48.172;11.484;2023-02-21T07:32:00;4.70;99.90
43665;DHT22;29263;48.172;11.484;2023-02-21T07:34:26;4.80;99.90
43665;DHT22;29263;48.172;11.484;2023-02-21T07:36:52;4.80;99.90
43665;DHT22;29263;48.172;11.484;2023-02-21T07:39:17;4.90;99.90
43665;DHT22;29263;48.172;11.484;2023-02-21T07:41:43;5.10;99.90
43665;DHT22;29263;48.172;11.484;2023-02-21T07:44:09;5.20;99.90
43665;DHT22;29263;48.172;11.484;2023-02-21T07:46:35;5.40;99.90
43665;DHT22;29263;48.172;11.484;2023-02-21T07:49:00;5.50;99.90
43665;DHT22;29263;48.172;11.484;2023-02-21T07:51:27;5.60;99.90
43665;DHT22;29263;48.172;11.484;2023-02-21T07:53:54;5.70;99.90
43665;DHT22;29263;48.172;11.484;2023-02-21T07:56:19;5.90;99.90
43665;DHT22;29263;48.172;11.484;2023-02-21T07:58:45;6.00;99.90
43665;DHT22;29263;48.172;11.484;2023-02-21T08:01:11;6.20;99.90
43665;DHT22;29263;48.172;11.484;2023-02-21T08:03:37;6.50;99.90
43665;DHT22;29263;48.172;11.484;2023-02-21T08:06:07;6.70;99.90
43665;DHT22;29263;48.172;11.484;2023-02-21T08:08:32;6.80;98.20
43665;DHT22;29263;48.172;11.484;2023-02-21T08:10:58;6.90;99.90
43665;DHT22;29263;48.172;11.484;2023-02-21T08:13:24;7.00;93.10
43665;DHT22;29263;48.172;11.484;2023-02-21T08:15:49;7.10;93.20
43665;DHT22;29263;48.172;11.484;2023-02-21T08:18:24;7.30;90.30
43665;DHT22;29263;48.172;11.484;2023-02-21T08:20:53;7.40;90.20
43665;DHT22;29263;48.172;11.484;2023-02-21T08:23:20;7.50;87.20
43665;DHT22;29263;48.172;11.484;2023-02-21T08:25:46;7.60;83.20
43665;DHT22;29263;48.172;11.484;2023-02-21T08:28:13;7.70;81.40
43665;DHT22;29263;48.172;11.484;2023-02-21T08:30:38;7.90;79.50
43665;DHT22;29263;48.172;11.484;2023-02-21T08:33:04;8.00;77.80
43665;DHT22;29263;48.172;11.484;2023-02-21T08:35:30;8.10;77.40
43665;DHT22;29263;48.172;11.484;2023-02-21T08:37:56;8.30;76.00
43665;DHT22;29263;48.172;11.484;2023-02-21T08:40:22;8.30;75.70
43665;DHT22;29263;48.172;11.484;2023-02-21T08:42:50;8.40;75.40
43665;DHT22;29263;48.172;11.484;2023-02-21T08:45:18;8.50;74.90
43665;DHT22;29263;48.172;11.484;2023-02-21T08:47:44;8.60;74.50
43665;DHT22;29263;48.172;11.484;2023-02-21T08:50:10;8.70;74.30
43665;DHT22;29263;48.172;11.484;2023-02-21T08:52:36;8.80;73.50
43665;DHT22;29263;48.172;11.484;2023-02-21T08:55:02;8.80;73.90
43665;DHT22;29263;48.172;11.484;2023-02-21T08:57:27;8.90;72.70
43665;DHT22;29263;48.172;11.484;2023-02-21T08:59:53;9.00;73.40
43665;DHT22;29263;48.172;11.484;2023-02-21T09:02:23;9.10;72.00
43665;DHT22;29263;48.172;11.484;2023-02-21T09:04:57;9.20;73.60
43665;DHT22;29263;48.172;11.484;2023-02-21T09:07:24;9.30;70.40
43665;DHT22;29263;48.172;11.484;2023-02-21T09:09:50;9.40;69.10
43665;DHT22;29263;48.172;11.484;2023-02-21T09:12:16;9.50;69.10
43665;DHT22;29263;48.172;11.484;2023-02-21T09:14:42;9.70;68.20
43665;DHT22;29263;48.172;11.484;2023-02-21T09:17:12;9.70;67.60
43665;DHT22;29263;48.172;11.484;2023-02-21T09:19:38;9.80;66.40
43665;DHT22;29263;48.172;11.484;2023-02-21T09:22:06;9.90;66.50
43665;DHT22;29263;48.172;11.484;2023-02-21T09:24:32;10.00;65.50
43665;DHT22;29263;48.172;11.484;2023-02-21T09:26:58;10.10;64.40
43665;DHT22;29263;48.172;11.484;2023-02-21T09:29:27;10.20;64.00
43665;DHT22;29263;48.172;11.484;2023-02-21T09:31:53;10.30;63.70
43665;DHT22;29263;48.172;11.484;2023-02-21T09:34:19;10.40;63.20
43665;DHT22;29263;48.172;11.484;2023-02-21T09:36:44;10.50;62.10
43665;DHT22;29263;48.172;11.484;2023-02-21T09:39:12;10.60;62.60
43665;DHT22;29263;48.172;11.484;2023-02-21T09:41:39;10.60;61.40
43665;DHT22;29263;48.172;11.484;2023-02-21T09:44:12;10.70;61.50
43665;DHT22;29263;48.172;11.484;2023-02-21T09:46:45;10.80;61.10
43665;DHT22;29263;48.172;11.484;2023-02-21T09:51:48;11.10;60.00
43665;DHT22;29263;48.172;11.484;2023-02-21T09:54:34;11.10;59.80
43665;DHT22;29263;48.172;11.484;2023-02-21T09:57:05;11.10;59.80
43665;DHT22;29263;48.172;11.484;2023-02-21T09:59:32;11.20;60.10
43665;DHT22;29263;48.172;11.484;2023-02-21T10:12:33;11.80;57.50
43665;DHT22;29263;48.172;11.484;2023-02-21T10:18:08;11.90;57.30
43665;DHT22;29263;48.172;11.484;2023-02-21T10:20:56;11.90;57.10
43665;DHT22;29263;48.172;11.484;2023-02-21T10:26:13;12.20;55.30
43665;DHT22;29263;48.172;11.484;2023-02-21T10:28:40;12.20;56.00
43665;DHT22;29263;48.172;11.484;2023-02-21T10:31:17;12.30;55.50
43665;DHT22;29263;48.172;11.484;2023-02-21T10:33:44;12.30;55.70
43665;DHT22;29263;48.172;11.484;2023-02-21T10:36:15;12.30;56.30
43665;DHT22;29263;48.172;11.484;2023-02-21T10:41:29;12.50;56.80
43665;DHT22;29263;48.172;11.484;2023-02-21T10:44:03;12.50;57.10
43665;DHT22;29263;48.172;11.484;2023-02-21T10:46:34;12.60;57.60
43665;DHT22;29263;48.172;11.484;2023-02-21T10:51:47;12.80;56.70
43665;DHT22;29263;48.172;11.484;2023-02-21T10:54:26;12.90;55.90
43665;DHT22;29263;48.172;11.484;2023-02-21T10:56:52;13.00;56.30
43665;DHT22;29263;48.172;11.484;2023-02-21T10:59:31;13.00;55.40
43665;DHT22;29263;48.172;11.484;2023-02-21T11:01:57;13.10;55.40
43665;DHT22;29263;48.172;11.484;2023-02-21T11:07:00;13.30;53.50
43665;DHT22;29263;48.172;11.484;2023-02-21T11:09:38;13.40;53.30
43665;DHT22;29263;48.172;11.484;2023-02-21T11:12:25;13.40;52.60
43665;DHT22;29263;48.172;11.484;2023-02-21T11:17:23;13.50;52.30
43665;DHT22;29263;48.172;11.484;2023-02-21T11:22:21;13.60;50.30
43665;DHT22;29263;48.172;11.484;2023-02-21T11:24:49;13.60;51.00
43665;DHT22;29263;48.172;11.484;2023-02-21T11:27:15;13.70;50.80
43665;DHT22;29263;48.172;11.484;2023-02-21T11:29:43;13.80;50.80
43665;DHT22;29263;48.172;11.484;2023-02-21T11:32:12;13.90;49.60
43665;DHT22;29263;48.172;11.484;2023-02-21T11:34:43;13.90;49.50
43665;DHT22;29263;48.172;11.484;2023-02-21T11:37:14;13.90;49.50
43665;DHT22;29263;48.172;11.484;2023-02-21T11:39:40;13.90;50.60
43665;DHT22;29263;48.172;11.484;2023-02-21T11:42:44;14.00;51.20
43665;DHT22;29263;48.172;11.484;2023-02-21T11:45:23;14.10;50.30
43665;DHT22;29263;48.172;11.484;2023-02-21T11:48:01;14.20;50.00
43665;DHT22;29263;48.172;11.484;2023-02-21T11:50:37;14.20;49.70
43665;DHT22;29263;48.172;11.484;2023-02-21T11:53:06;14.10;49.40
43665;DHT22;29263;48.172;11.484;2023-02-21T11:55:46;14.10;50.70
43665;DHT22;29263;48.172;11.484;2023-02-21T12:01:12;14.10;50.00
43665;DHT22;29263;48.172;11.484;2023-02-21T12:06:37;14.20;49.50
43665;DHT22;29263;48.172;11.484;2023-02-21T12:09:12;14.20;49.90
43665;DHT22;29263;48.172;11.484;2023-02-21T12:20:27;14.30;50.50
43665;DHT22;29263;48.172;11.484;2023-02-21T12:23:15;14.40;50.30
43665;DHT22;29263;48.172;11.484;2023-02-21T12:33:48;14.60;50.80
43665;DHT22;29263;48.172;11.484;2023-02-21T12:44:35;14.80;49.80
43665;DHT22;29263;48.172;11.484;2023-02-21T12:47:20;14.80;50.80
43665;DHT22;29263;48.172;11.484;2023-02-21T12:50:40;14.80;51.50
43665;DHT22;29263;48.172;11.484;2023-02-21T12:55:32;14.90;51.30
43665;DHT22;29263;48.172;11.484;2023-02-21T13:01:17;15.10;52.10
43665;DHT22;29263;48.172;11.484;2023-02-21T13:06:52;15.30;49.00
43665;DHT22;29263;48.172;11.484;2023-02-21T13:10:04;15.40;49.30
43665;DHT22;29263;48.172;11.484;2023-02-21T13:12:51;15.40;49.30
43665;DHT22;29263;48.172;11.484;2023-02-21T13:15:23;15.50;49.70
43665;DHT22;29263;48.172;11.484;2023-02-21T13:17:57;15.50;48.90
43665;DHT22;29263;48.172;11.484;2023-02-21T13:20:26;15.60;48.80
43665;DHT22;29263;48.172;11.484;2023-02-21T13:29:43;15.50;48.70
43665;DHT22;29263;48.172;11.484;2023-02-21T13:32:15;15.60;48.40
43665;DHT22;29263;48.172;11.484;2023-02-21T13:34:58;15.60;48.80
43665;DHT22;29263;48.172;11.484;2023-02-21T13:37:29;15.60;49.00
43665;DHT22;29263;48.172;11.484;2023-02-21T13:40:25;15.60;50.90
43665;DHT22;29263;48.172;11.484;2023-02-21T13:43:04;15.80;49.60
43665;DHT22;29263;48.172;11.484;2023-02-21T13:57:51;15.90;48.20
43665;DHT22;29263;48.172;11.484;2023-02-21T14:03:40;16.00;48.70
43665;DHT22;29263;48.172;11.484;2023-02-21T14:08:49;16.20;48.70
43665;DHT22;29263;48.172;11.484;2023-02-21T14:11:26;16.20;48.20
43665;DHT22;29263;48.172;11.484;2023-02-21T14:13:58;16.40;48.90
43665;DHT22;29263;48.172;11.484;2023-02-21T14:16:27;16.70;47.80
43665;DHT22;29263;48.172;11.484;2023-02-21T14:19:07;17.00;46.60
43665;DHT22;29263;48.172;11.484;2023-02-21T14:25:06;17.50;46.20
43665;DHT22;29263;48.172;11.484;2023-02-21T14:27:34;18.50;44.50
43665;DHT22;29263;48.172;11.484;2023-02-21T14:32:33;20.20;40.80
43665;DHT22;29263;48.172;11.484;2023-02-21T14:34:59;20.90;38.90
43665;DHT22;29263;48.172;11.484;2023-02-21T14:37:37;21.20;38.50
43665;DHT22;29263;48.172;11.484;2023-02-21T14:51:09;23.20;35.60
43665;DHT22;29263;48.172;11.484;2023-02-21T14:54:06;23.00;35.30
43665;DHT22;29263;48.172;11.484;2023-02-21T14:57:17;22.00;37.30
43665;DHT22;29263;48.172;11.484;2023-02-21T15:05:32;20.60;39.40
43665;DHT22;29263;48.172;11.484;2023-02-21T15:08:08;20.60;39.60
43665;DHT22;29263;48.172;11.484;2023-02-21T15:10:44;20.30;39.70
43665;DHT22;29263;48.172;11.484;2023-02-21T15:13:24;20.10;40.70
43665;DHT22;29263;48.172;11.484;2023-02-21T15:18:30;19.40;41.30
43665;DHT22;29263;48.172;11.484;2023-02-21T15:23:42;18.40;44.50
43665;DHT22;29263;48.172;11.484;2023-02-21T15:26:29;17.90;43.80
43665;DHT22;29263;48.172;11.484;2023-02-21T15:29:15;17.60;44.60
43665;DHT22;29263;48.172;11.484;2023-02-21T15:31:54;17.30;45.00
43665;DHT22;29263;48.172;11.484;2023-02-21T15:34:28;16.90;45.90
43665;DHT22;29263;48.172;11.484;2023-02-21T15:37:22;16.70;46.70
43665;DHT22;29263;48.172;11.484;2023-02-21T15:39:58;16.40;48.10
43665;DHT22;29263;48.172;11.484;2023-02-21T15:42:26;16.30;48.50
43665;DHT22;29263;48.172;11.484;2023-02-21T15:45:02;16.20;49.30
43665;DHT22;29263;48.172;11.484;2023-02-21T15:47:32;16.00;50.30
43665;DHT22;29263;48.172;11.484;2023-02-21T15:50:10;15.90;48.90
43665;DHT22;29263;48.172;11.484;2023-02-21T15:52:42;15.80;49.70
43665;DHT22;29263;48.172;11.484;2023-02-21T16:00:37;15.40;52.00
43665;DHT22;29263;48.172;11.484;2023-02-21T16:07:20;15.10;55.10
43665;DHT22;29263;48.172;11.484;2023-02-21T16:10:41;14.90;54.50
43665;DHT22;29263;48.172;11.484;2023-02-21T16:13:17;14.80;55.60
43665;DHT22;29263;48.172;11.484;2023-02-21T16:15:46;14.60;56.60
43665;DHT22;29263;48.172;11.484;2023-02-21T16:18:17;14.40;57.40
43665;DHT22;29263;48.172;11.484;2023-02-21T16:20:43;14.30;57.70
43665;DHT22;29263;48.172;11.484;2023-02-21T16:28:30;13.90;60.70
43665;DHT22;29263;48.172;11.484;2023-02-21T16:30:57;13.80;60.60
43665;DHT22;29263;48.172;11.484;2023-02-21T16:33:26;13.60;61.00
43665;DHT22;29263;48.172;11.484;2023-02-21T16:35:52;13.50;62.00
43665;DHT22;29263;48.172;11.484;2023-02-21T16:38:19;13.40;62.50
43665;DHT22;29263;48.172;11.484;2023-02-21T16:40:46;13.30;63.20
43665;DHT22;29263;48.172;11.484;2023-02-21T16:43:27;13.20;63.70
43665;DHT22;29263;48.172;11.484;2023-02-21T16:45:56;13.00;64.20
43665;DHT22;29263;48.172;11.484;2023-02-21T16:48:27;12.80;64.50
43665;DHT22;29263;48.172;11.484;2023-02-21T16:50:58;12.70;65.30
43665;DHT22;29263;48.172;11.484;2023-02-21T16:53:24;12.60;65.80
43665;DHT22;29263;48.172;11.484;2023-02-21T16:55:50;12.50;65.60
43665;DHT22;29263;48.172;11.484;2023-02-21T16:58:24;12.30;65.90
43665;DHT22;29263;48.172;11.484;2023-02-21T17:00:56;12.20;66.40
43665;DHT22;29263;48.172;11.484;2023-02-21T17:03:22;12.10;67.10
43665;DHT22;29263;48.172;11.484;2023-02-21T17:05:50;12.00;68.40
43665;DHT22;29263;48.172;11.484;2023-02-21T17:08:17;11.90;69.20
43665;DHT22;29263;48.172;11.484;2023-02-21T17:10:43;11.80;69.80
43665;DHT22;29263;48.172;11.484;2023-02-21T17:13:08;11.70;70.20
43665;DHT22;29263;48.172;11.484;2023-02-21T17:15:34;11.60;72.10
43665;DHT22;29263;48.172;11.484;2023-02-21T17:18:00;11.40;71.80
43665;DHT22;29263;48.172;11.484;2023-02-21T17:20:26;11.30;71.50
43665;DHT22;29263;48.172;11.484;2023-02-21T17:22:53;11.30;72.40
43665;DHT22;29263;48.172;11.484;2023-02-21T17:25:20;11.20;73.30
43665;DHT22;29263;48.172;11.484;2023-02-21T17:27:46;11.10;74.00
43665;DHT22;29263;48.172;11.484;2023-02-21T17:30:16;10.90;74.60
43665;DHT22;29263;48.172;11.484;2023-02-21T17:32:42;10.80;75.60
43665;DHT22;29263;48.172;11.484;2023-02-21T17:35:09;10.80;75.50
43665;DHT22;29263;48.172;11.484;2023-02-21T17:37:35;10.70;76.40
43665;DHT22;29263;48.172;11.484;2023-02-21T17:40:01;10.60;77.20
43665;DHT22;29263;48.172;11.484;2023-02-21T17:42:27;10.50;78.70
43665;DHT22;29263;48.172;11.484;2023-02-21T17:44:52;10.40;79.70
43665;DHT22;29263;48.172;11.484;2023-02-21T17:47:19;10.30;80.70
43665;DHT22;29263;48.172;11.484;2023-02-21T17:49:47;10.20;81.10
43665;DHT22;29263;48.172;11.484;2023-02-21T17:52:13;10.20;81.60
43665;DHT22;29263;48.172;11.484;2023-02-21T17:54:40;10.10;81.70
43665;DHT22;29263;48.172;11.484;2023-02-21T17:57:06;10.00;81.50
43665;DHT22;29263;48.172;11.484;2023-02-21T17:59:33;9.90;82.90
43665;DHT22;29263;48.172;11.484;2023-02-21T18:01:59;9.80;84.30
43665;DHT22;29263;48.172;11.484;2023-02-21T18:04:25;9.80;84.40
43665;DHT22;29263;48.172;11.484;2023-02-21T18:06:51;9.80;84.10
43665;DHT22;29263;48.172;11.484;2023-02-21T18:09:17;9.70;84.40
43665;DHT22;29263;48.172;11.484;2023-02-21T18:11:50;9.60;85.70
43665;DHT22;29263;48.172;11.484;2023-02-21T18:14:17;9.50;86.90
43665;DHT22;29263;48.172;11.484;2023-02-21T18:16:45;9.40;87.70
43665;DHT22;29263;48.172;11.484;2023-02-21T18:19:11;9.40;88.40
43665;DHT22;29263;48.172;11.484;2023-02-21T18:21:37;9.30;88.90
43665;DHT22;29263;48.172;11.484;2023-02-21T18:24:09;9.30;89.30
43665;DHT22;29263;48.172;11.484;2023-02-21T18:26:36;9.30;91.20
43665;DHT22;29263;48.172;11.484;2023-02-21T18:29:03;9.20;91.60
43665;DHT22;29263;48.172;11.484;2023-02-21T18:31:29;9.10;92.40
43665;DHT22;29263;48.172;11.484;2023-02-21T18:33:55;9.10;93.90
43665;DHT22;29263;48.172;11.484;2023-02-21T18:36:20;9.00;94.60
43665;DHT22;29263;48.172;11.484;2023-02-21T18:38:46;8.90;95.90
43665;DHT22;29263;48.172;11.484;2023-02-21T18:41:13;8.80;98.30
43665;DHT22;29263;48.172;11.484;2023-02-21T18:43:40;8.80;99.00
43665;DHT22;29263;48.172;11.484;2023-02-21T18:46:09;8.80;99.90
43665;DHT22;29263;48.172;11.484;2023-02-21T18:48:36;8.70;99.90